Time;durP1;ratioP1;P1;durP2;ratioP2;P2;SDS_P1;SDS_P2;PMS_P1;PMS_P2;Temp;Humidity;BMP_temperature;BMP_pressure;BME280_temperature;BME280_humidity;BME280_pressure;Samples;Min_cycle;Max_cycle;Signal;HPM_P1;HPM_P2
2022/11/23 00:02:21;;;;;;;5.80;4.20;;;6.40;99.90;;;;;;5065125;28;20494;-88
2022/11/23 00:04:49;;;;;;;9.13;3.20;;;6.40;99.90;;;;;;5037808;28;20463;-87
2022/11/23 00:07:15;;;;;;;10.30;3.43;;;6.40;99.90;;;;;;5046509;28;20454;-87
2022/11/23 00:09:42;;;;;;;4.67;3.20;;;6.40;99.90;;;;;;5034049;28;20435;-87
2022/11/23 00:12:09;;;;;;;9.03;3.07;;;6.40;99.90;;;;;;5032095;28;20438;-87
2022/11/23 00:14:36;;;;;;;7.07;2.73;;;6.40;99.90;;;;;;5034080;28;20855;-87
2022/11/23 00:17:04;;;;;;;4.13;2.83;;;6.30;99.90;;;;;;5032756;28;20472;-87
2022/11/23 00:19:31;;;;;;;6.00;2.97;;;6.30;99.90;;;;;;5035364;28;20443;-86
2022/11/23 00:21:58;;;;;;;5.53;3.10;;;6.30;99.90;;;;;;5042632;28;20443;-87
2022/11/23 00:24:25;;;;;;;3.10;2.40;;;6.30;99.90;;;;;;5042295;28;20651;-87
2022/11/23 00:26:51;;;;;;;5.90;3.47;;;6.30;99.90;;;;;;5039169;28;20447;-88
2022/11/23 00:29:18;;;;;;;5.57;3.67;;;6.30;99.90;;;;;;5040850;28;20444;-87
2022/11/23 00:31:45;;;;;;;6.40;3.50;;;6.40;99.90;;;;;;5040458;28;20451;-87
2022/11/23 00:34:13;;;;;;;6.43;3.20;;;6.30;99.90;;;;;;5034052;28;20481;-87
2022/11/23 00:36:39;;;;;;;5.20;2.53;;;6.20;99.90;;;;;;5049008;28;20479;-88
2022/11/23 00:39:06;;;;;;;5.47;3.40;;;6.10;99.90;;;;;;5036547;28;20450;-87
2022/11/23 00:41:33;;;;;;;4.57;2.60;;;6.20;99.90;;;;;;5032405;28;20437;-88
2022/11/23 00:44:00;;;;;;;6.10;3.10;;;6.20;99.90;;;;;;5034995;28;20465;-87
2022/11/23 00:46:28;;;;;;;4.57;3.03;;;6.20;99.90;;;;;;5031944;28;20439;-87
2022/11/23 00:48:57;;;;;;;7.30;4.10;;;6.30;99.90;;;;;;5031470;28;20438;-87
2022/11/23 00:51:27;;;;;;;7.90;4.43;;;6.30;99.90;;;;;;5030417;28;20453;-87
2022/11/23 00:53:54;;;;;;;8.00;3.90;;;6.40;99.90;;;;;;5035205;28;20473;-87
2022/11/23 00:56:21;;;;;;;6.40;2.80;;;6.50;99.90;;;;;;5031471;28;20473;-87
2022/11/23 00:58:49;;;;;;;5.40;3.00;;;6.60;99.90;;;;;;5031343;28;20453;-87
2022/11/23 01:01:17;;;;;;;3.90;2.50;;;6.60;99.90;;;;;;5031032;28;20484;-87
2022/11/23 01:03:45;;;;;;;6.73;2.87;;;6.70;99.90;;;;;;5030077;28;20982;-88
2022/11/23 01:06:14;;;;;;;6.13;3.07;;;6.70;99.90;;;;;;5031292;28;20447;-87
2022/11/23 01:08:42;;;;;;;5.10;3.40;;;6.70;99.90;;;;;;5030810;28;20442;-87
2022/11/23 01:11:12;;;;;;;5.40;3.27;;;6.80;99.90;;;;;;5030931;28;20446;-87
2022/11/23 01:13:42;;;;;;;4.17;2.80;;;6.80;99.90;;;;;;5029089;28;20980;-87
2022/11/23 01:16:13;;;;;;;9.37;4.07;;;6.80;99.90;;;;;;5032403;28;20460;-87
2022/11/23 01:18:39;;;;;;;6.30;2.60;;;6.80;99.90;;;;;;5030397;28;20443;-87
2022/11/23 01:21:07;;;;;;;4.50;2.60;;;6.70;99.90;;;;;;5030842;28;20443;-87
2022/11/23 01:23:33;;;;;;;6.37;2.70;;;6.70;99.90;;;;;;5031065;28;20460;-87
2022/11/23 01:26:06;;;;;;;5.40;2.30;;;6.70;99.90;;;;;;5031594;28;20446;-87
2022/11/23 01:28:33;;;;;;;5.57;2.57;;;6.70;99.90;;;;;;5036514;28;20518;-87
2022/11/23 01:31:05;;;;;;;5.50;2.80;;;6.70;99.90;;;;;;5045136;28;20438;-87
2022/11/23 01:33:31;;;;;;;4.60;3.27;;;6.60;99.90;;;;;;5044754;28;20468;-87
2022/11/23 01:35:58;;;;;;;6.53;2.53;;;6.60;99.90;;;;;;5037174;28;20440;-87
2022/11/23 01:38:25;;;;;;;5.93;3.10;;;6.60;99.90;;;;;;5037314;28;20454;-87
2022/11/23 01:40:52;;;;;;;6.03;2.60;;;6.60;99.90;;;;;;5044123;28;20427;-88
2022/11/23 01:43:20;;;;;;;4.53;2.77;;;6.60;99.90;;;;;;5038681;28;20489;-87
2022/11/23 01:45:56;;;;;;;6.43;3.03;;;6.50;99.90;;;;;;5033723;28;20446;-87
2022/11/23 01:48:26;;;;;;;4.67;2.90;;;6.50;99.90;;;;;;5033556;28;20437;-87
2022/11/23 01:50:56;;;;;;;5.40;2.60;;;6.50;99.90;;;;;;5035664;28;20511;-87
2022/11/23 01:53:23;;;;;;;3.50;2.40;;;6.50;99.90;;;;;;5029936;28;20473;-87
2022/11/23 01:55:51;;;;;;;4.27;2.50;;;6.60;99.90;;;;;;5034111;28;20443;-87
2022/11/23 01:58:23;;;;;;;8.20;3.10;;;6.60;99.90;;;;;;5034686;28;20480;-87
2022/11/23 02:00:50;;;;;;;7.60;2.70;;;6.60;99.90;;;;;;5034971;28;20444;-87
2022/11/23 02:03:17;;;;;;;7.37;2.30;;;6.60;99.90;;;;;;5034678;28;20480;-87
2022/11/23 02:05:47;;;;;;;5.87;2.30;;;6.60;99.90;;;;;;5036205;28;20446;-87
2022/11/23 02:08:16;;;;;;;5.57;3.27;;;6.60;99.90;;;;;;5034489;28;20437;-87
2022/11/23 02:10:43;;;;;;;7.13;2.87;;;6.50;99.90;;;;;;5034309;28;20442;-88
2022/11/23 02:13:12;;;;;;;4.10;2.53;;;6.50;99.90;;;;;;5036480;28;20470;-87
2022/11/23 02:15:41;;;;;;;4.87;3.20;;;6.50;99.90;;;;;;5043990;28;20442;-87
2022/11/23 02:18:13;;;;;;;4.60;3.17;;;6.40;99.90;;;;;;5043841;28;20491;-87
2022/11/23 02:20:40;;;;;;;5.13;2.50;;;6.40;99.90;;;;;;5052795;28;20437;-87
2022/11/23 02:23:52;;;;;;;8.40;3.50;;;6.30;99.90;;;;;;5037159;28;20472;-87
2022/11/23 02:26:22;;;;;;;6.23;3.37;;;6.40;99.90;;;;;;5038182;28;20451;-87
2022/11/23 02:28:52;;;;;;;5.50;3.30;;;6.30;99.90;;;;;;5033385;28;20445;-87
2022/11/23 02:31:19;;;;;;;7.13;4.63;;;6.10;99.90;;;;;;5033540;28;21117;-87
2022/11/23 02:33:46;;;;;;;9.47;4.60;;;6.10;99.90;;;;;;5045351;28;20936;-87
2022/11/23 02:36:36;;;;;;;6.80;3.50;;;6.00;99.90;;;;;;5047948;28;20453;-87
2022/11/23 02:39:07;;;;;;;7.10;3.67;;;6.00;99.90;;;;;;5034259;28;20479;-87
2022/11/23 02:41:41;;;;;;;6.10;3.53;;;6.00;99.90;;;;;;5049863;28;20438;-87
2022/11/23 02:44:15;;;;;;;8.90;3.43;;;6.00;99.90;;;;;;5036467;28;21161;-87
2022/11/23 02:46:42;;;;;;;4.93;3.37;;;6.00;99.90;;;;;;5030588;28;20448;-87
2022/11/23 02:49:08;;;;;;;8.47;4.87;;;5.90;99.90;;;;;;5036675;28;20447;-87
2022/11/23 02:51:35;;;;;;;3.97;3.00;;;5.80;99.90;;;;;;5040949;28;20455;-87
2022/11/23 02:54:02;;;;;;;7.63;3.53;;;5.80;99.90;;;;;;5043726;28;20452;-88
2022/11/23 02:56:28;;;;;;;4.13;3.60;;;5.70;99.90;;;;;;5034985;28;20437;-87
2022/11/23 02:58:56;;;;;;;11.47;3.47;;;5.70;99.90;;;;;;5047634;28;20478;-87
2022/11/23 03:01:23;;;;;;;4.90;3.40;;;5.60;99.90;;;;;;5046926;28;20419;-87
2022/11/23 03:03:50;;;;;;;10.27;4.60;;;5.60;99.90;;;;;;5038709;28;20449;-87
2022/11/23 03:06:17;;;;;;;9.77;3.90;;;5.60;99.90;;;;;;5034462;28;20457;-87
2022/11/23 03:08:43;;;;;;;6.27;3.53;;;5.70;99.90;;;;;;5034046;28;20439;-87
2022/11/23 03:11:10;;;;;;;6.27;4.73;;;5.60;99.90;;;;;;5033531;28;20975;-87
2022/11/23 03:13:37;;;;;;;5.60;3.53;;;5.50;99.90;;;;;;5031114;28;20470;-87
2022/11/23 03:16:05;;;;;;;9.67;4.20;;;5.50;99.90;;;;;;5061865;28;20438;-88
2022/11/23 03:18:32;;;;;;;8.97;4.13;;;5.40;99.90;;;;;;5055712;28;20473;-86
2022/11/23 03:21:02;;;;;;;7.90;4.23;;;5.40;99.90;;;;;;5042549;28;20442;-87
2022/11/23 03:23:29;;;;;;;7.33;4.30;;;5.40;99.90;;;;;;5036625;28;20501;-87
2022/11/23 03:25:56;;;;;;;6.07;4.10;;;5.40;99.90;;;;;;5041236;28;20441;-87
2022/11/23 03:28:23;;;;;;;8.50;4.27;;;5.30;99.90;;;;;;5040532;28;20807;-87
2022/11/23 03:30:50;;;;;;;5.90;4.67;;;5.30;99.90;;;;;;5030317;28;20512;-87
2022/11/23 03:33:18;;;;;;;7.77;5.23;;;5.30;99.90;;;;;;5066661;28;20461;-87
2022/11/23 03:35:45;;;;;;;8.83;5.50;;;5.30;99.90;;;;;;5045989;28;20430;-87
2022/11/23 03:38:12;;;;;;;8.63;5.37;;;5.40;99.90;;;;;;5032560;28;20481;-87
2022/11/23 03:40:39;;;;;;;9.57;5.73;;;5.50;99.90;;;;;;5034795;28;20441;-87
2022/11/23 03:43:06;;;;;;;13.03;5.97;;;5.50;99.90;;;;;;5035462;28;20471;-87
2022/11/23 03:45:34;;;;;;;7.40;5.10;;;5.50;99.90;;;;;;5034136;28;20504;-87
2022/11/23 03:48:00;;;;;;;14.07;5.80;;;5.50;99.90;;;;;;5033082;28;20445;-87
2022/11/23 03:50:28;;;;;;;9.40;5.57;;;5.60;99.90;;;;;;5032202;28;20437;-87
2022/11/23 03:52:55;;;;;;;7.00;5.50;;;5.60;99.90;;;;;;5042091;28;20475;-87
2022/11/23 03:55:22;;;;;;;12.57;7.13;;;5.60;99.90;;;;;;5053325;28;20451;-87
2022/11/23 03:57:49;;;;;;;10.30;4.93;;;5.80;99.90;;;;;;5050479;28;20480;-87
2022/11/23 04:00:16;;;;;;;9.63;5.83;;;5.80;99.90;;;;;;5048694;28;20447;-87
2022/11/23 04:02:43;;;;;;;9.97;5.33;;;5.80;99.90;;;;;;5037901;28;20447;-87
2022/11/23 04:05:10;;;;;;;9.83;5.40;;;5.80;99.90;;;;;;5033364;28;20446;-87
2022/11/23 04:07:38;;;;;;;10.50;5.23;;;5.90;99.90;;;;;;5034798;28;20436;-87
2022/11/23 04:10:06;;;;;;;13.80;5.70;;;6.00;99.90;;;;;;5034094;28;20443;-87
2022/11/23 04:12:32;;;;;;;8.70;6.03;;;6.00;99.90;;;;;;5034332;28;20441;-87
2022/11/23 04:14:59;;;;;;;7.60;4.83;;;6.10;99.90;;;;;;5036142;28;20466;-87
2022/11/23 04:17:26;;;;;;;10.10;5.50;;;6.10;99.90;;;;;;5031225;28;20832;-87
2022/11/23 04:19:52;;;;;;;11.27;5.63;;;6.10;99.90;;;;;;5029865;28;20522;-87
2022/11/23 04:22:19;;;;;;;9.27;5.10;;;6.10;99.90;;;;;;5034556;28;20939;-87
2022/11/23 04:24:47;;;;;;;10.30;5.30;;;6.10;99.90;;;;;;5027941;28;20471;-87
2022/11/23 04:27:14;;;;;;;10.10;5.63;;;6.20;99.90;;;;;;5030818;28;20449;-87
2022/11/23 04:29:41;;;;;;;12.33;5.40;;;6.10;99.90;;;;;;5033370;28;20433;-87
2022/11/23 04:32:07;;;;;;;7.13;5.00;;;6.10;99.90;;;;;;5032042;28;20817;-87
2022/11/23 04:34:34;;;;;;;8.20;4.80;;;6.10;99.90;;;;;;5041124;28;20441;-87
2022/11/23 04:37:01;;;;;;;7.53;4.57;;;6.20;99.90;;;;;;5056856;28;20427;-88
2022/11/23 04:39:27;;;;;;;9.57;5.23;;;6.20;99.90;;;;;;5038146;28;20429;-87
2022/11/23 04:41:56;;;;;;;7.50;4.27;;;6.20;99.90;;;;;;5032755;28;20437;-87
2022/11/23 04:44:22;;;;;;;9.10;4.80;;;6.20;99.90;;;;;;5036873;28;20469;-87
2022/11/23 04:46:49;;;;;;;6.10;4.43;;;6.20;99.90;;;;;;5029915;28;20895;-88
2022/11/23 04:49:16;;;;;;;9.80;5.30;;;6.20;99.90;;;;;;5030091;28;20447;-87
2022/11/23 04:51:43;;;;;;;8.10;4.87;;;6.10;99.90;;;;;;5030759;28;20433;-87
2022/11/23 04:54:10;;;;;;;14.23;6.30;;;6.10;99.90;;;;;;5030990;28;20457;-87
2022/11/23 04:56:37;;;;;;;11.37;5.00;;;6.10;99.90;;;;;;5032506;28;20448;-87
2022/11/23 04:59:06;;;;;;;8.53;6.07;;;6.00;99.90;;;;;;5031489;28;20597;-87
2022/11/23 05:01:33;;;;;;;7.73;4.93;;;5.90;99.90;;;;;;5030328;28;20449;-87
2022/11/23 05:03:59;;;;;;;11.37;5.27;;;5.80;99.90;;;;;;5030256;28;20459;-88
2022/11/23 05:06:26;;;;;;;8.87;5.43;;;5.80;99.90;;;;;;5029389;28;20448;-87
2022/11/23 05:08:53;;;;;;;9.73;5.47;;;5.80;99.90;;;;;;5032037;28;20433;-87
2022/11/23 05:11:20;;;;;;;10.70;5.63;;;5.80;99.90;;;;;;5030119;28;20458;-87
2022/11/23 05:13:47;;;;;;;9.53;5.47;;;5.80;99.90;;;;;;5030291;28;21024;-87
2022/11/23 05:16:15;;;;;;;9.03;6.37;;;5.80;99.90;;;;;;5027824;28;20871;-87
2022/11/23 05:18:41;;;;;;;10.90;5.63;;;5.70;99.90;;;;;;5032248;28;20500;-87
2022/11/23 05:21:08;;;;;;;7.83;5.47;;;5.60;99.90;;;;;;5030865;28;20449;-87
2022/11/23 05:23:35;;;;;;;11.00;5.80;;;5.60;99.90;;;;;;5032929;28;20970;-87
2022/11/23 05:26:02;;;;;;;11.00;6.73;;;5.70;99.90;;;;;;5051218;28;20444;-87
2022/11/23 05:28:28;;;;;;;16.33;7.40;;;5.70;99.90;;;;;;5056323;28;20447;-87
2022/11/23 05:30:55;;;;;;;8.40;6.50;;;5.70;99.90;;;;;;5043979;28;20444;-86
2022/11/23 05:33:23;;;;;;;13.60;7.23;;;5.70;99.90;;;;;;5034098;28;20467;-87
2022/11/23 05:35:50;;;;;;;10.10;5.20;;;5.70;99.90;;;;;;5035174;28;20438;-87
2022/11/23 05:38:17;;;;;;;13.20;7.03;;;5.80;99.90;;;;;;5035905;28;20481;-87
2022/11/23 05:40:45;;;;;;;12.17;6.10;;;5.80;99.90;;;;;;5031688;28;20449;-87
2022/11/23 05:43:12;;;;;;;14.90;7.07;;;5.80;99.90;;;;;;5036928;28;20522;-87
2022/11/23 05:45:38;;;;;;;11.70;6.77;;;5.80;99.90;;;;;;5038068;28;20441;-87
2022/11/23 05:48:06;;;;;;;11.67;6.90;;;5.80;99.90;;;;;;5033294;28;20445;-87
2022/11/23 05:50:34;;;;;;;11.80;6.90;;;5.80;99.90;;;;;;5030641;28;20445;-87
2022/11/23 05:53:01;;;;;;;10.30;6.57;;;5.80;99.90;;;;;;5042804;28;20463;-87
2022/11/23 05:55:28;;;;;;;8.73;5.90;;;5.90;99.90;;;;;;5054210;28;20430;-87
2022/11/23 05:57:54;;;;;;;15.17;7.43;;;5.90;99.90;;;;;;5029945;28;20848;-87
2022/11/23 06:00:21;;;;;;;12.40;7.73;;;5.90;99.90;;;;;;5030464;28;20437;-87
2022/11/23 06:02:48;;;;;;;14.17;6.40;;;6.00;99.90;;;;;;5031268;28;20765;-88
2022/11/23 06:05:15;;;;;;;9.63;6.90;;;6.00;99.90;;;;;;5028460;28;20445;-87
2022/11/23 06:07:43;;;;;;;11.60;5.80;;;6.00;99.90;;;;;;5032728;28;20446;-87
2022/11/23 06:10:11;;;;;;;13.50;6.27;;;6.10;99.90;;;;;;5030067;28;20927;-87
2022/11/23 06:12:38;;;;;;;14.27;5.93;;;6.10;99.90;;;;;;5030214;28;20564;-87
2022/11/23 06:15:06;;;;;;;12.60;6.17;;;6.10;99.90;;;;;;5030242;28;20442;-87
2022/11/23 06:17:33;;;;;;;12.97;6.93;;;6.10;99.90;;;;;;5053489;28;20426;-87
2022/11/23 06:19:59;;;;;;;10.23;5.53;;;6.10;99.90;;;;;;5031977;28;20443;-87
2022/11/23 06:22:26;;;;;;;10.43;7.10;;;6.10;99.90;;;;;;5032506;28;20450;-87
2022/11/23 06:24:54;;;;;;;11.53;6.70;;;6.10;99.90;;;;;;5031256;28;20844;-87
2022/11/23 06:27:21;;;;;;;9.87;5.63;;;6.10;99.90;;;;;;5031362;28;20437;-86
2022/11/23 06:29:47;;;;;;;8.27;5.20;;;6.20;99.90;;;;;;5030972;28;20444;-87
2022/11/23 06:32:15;;;;;;;7.37;4.77;;;6.10;99.90;;;;;;5031294;28;20437;-87
2022/11/23 06:34:41;;;;;;;7.60;4.47;;;6.10;99.90;;;;;;5053108;28;20471;-87
2022/11/23 06:37:08;;;;;;;11.30;5.40;;;6.00;99.90;;;;;;5033483;28;20451;-87
2022/11/23 06:39:35;;;;;;;14.90;6.90;;;6.00;99.90;;;;;;5032080;28;20501;-88
2022/11/23 06:42:03;;;;;;;11.97;5.53;;;5.90;99.90;;;;;;5034375;28;20442;-87
2022/11/23 06:44:30;;;;;;;10.37;5.20;;;5.90;99.90;;;;;;5035360;28;20499;-87
2022/11/23 06:46:57;;;;;;;10.33;6.60;;;5.80;99.90;;;;;;5037388;28;20930;-86
2022/11/23 06:49:24;;;;;;;11.87;6.40;;;5.90;99.90;;;;;;5034028;28;20444;-87
2022/11/23 06:51:51;;;;;;;12.23;5.67;;;5.80;99.90;;;;;;5033958;28;20442;-88
2022/11/23 06:54:18;;;;;;;11.60;6.27;;;5.70;99.90;;;;;;5052748;28;20475;-88
2022/11/23 06:56:45;;;;;;;10.77;5.60;;;5.80;99.90;;;;;;5048385;28;20453;-87
2022/11/23 06:59:14;;;;;;;12.70;6.40;;;5.70;99.90;;;;;;5052231;28;20485;-87
2022/11/23 07:01:41;;;;;;;13.87;6.47;;;5.80;99.90;;;;;;5039388;28;20443;-87
2022/11/23 07:04:07;;;;;;;9.10;6.00;;;5.70;99.90;;;;;;5035666;28;20466;-87
2022/11/23 07:06:34;;;;;;;7.87;6.27;;;5.60;99.90;;;;;;5035565;28;20438;-88
2022/11/23 07:09:01;;;;;;;13.20;8.23;;;5.60;99.90;;;;;;5031215;28;20454;-87
2022/11/23 07:11:28;;;;;;;12.43;6.97;;;5.60;99.90;;;;;;5035739;28;20495;-87
2022/11/23 07:13:55;;;;;;;13.27;5.37;;;5.60;99.90;;;;;;5035478;28;20830;-88
2022/11/23 07:16:24;;;;;;;11.40;6.10;;;5.70;99.90;;;;;;5040319;28;20763;-87
2022/11/23 07:18:50;;;;;;;11.83;6.73;;;5.70;99.90;;;;;;5053078;28;20464;-87
2022/11/23 07:21:18;;;;;;;17.53;8.37;;;5.60;99.90;;;;;;5069778;28;20500;-86
2022/11/23 07:23:44;;;;;;;9.13;8.07;;;5.70;99.90;;;;;;5034504;28;20466;-86
2022/11/23 07:26:11;;;;;;;12.23;6.90;;;5.70;99.90;;;;;;5034975;28;20450;-86
2022/11/23 07:28:38;;;;;;;15.77;7.30;;;5.70;99.90;;;;;;5036383;28;20707;-85
2022/11/23 07:31:04;;;;;;;15.93;7.23;;;5.70;99.90;;;;;;5038189;28;20464;-85
2022/11/23 07:33:33;;;;;;;9.40;5.23;;;5.70;99.90;;;;;;5037085;28;20469;-86
2022/11/23 07:36:01;;;;;;;7.30;4.97;;;5.70;99.90;;;;;;5035941;28;20946;-87
2022/11/23 07:38:28;;;;;;;7.03;5.93;;;5.70;99.90;;;;;;5037034;28;20489;-87
2022/11/23 07:40:57;;;;;;;13.90;6.70;;;5.70;99.90;;;;;;5038674;28;20436;-87
2022/11/23 07:43:24;;;;;;;15.67;7.93;;;5.70;99.90;;;;;;5037196;28;20463;-86
2022/11/23 07:45:51;;;;;;;12.60;6.60;;;5.70;99.90;;;;;;5036737;28;20441;-83
2022/11/23 07:48:18;;;;;;;10.07;6.23;;;5.70;99.90;;;;;;5032300;28;20437;-83
2022/11/23 07:50:46;;;;;;;10.37;6.13;;;5.70;99.90;;;;;;5038669;28;20471;-82
2022/11/23 07:53:12;;;;;;;18.03;6.93;;;5.70;99.90;;;;;;5043349;28;20461;-83
2022/11/23 07:55:39;;;;;;;10.83;7.23;;;5.70;99.90;;;;;;5050089;28;20435;-84
2022/11/23 07:58:06;;;;;;;10.33;6.63;;;5.80;99.90;;;;;;5051599;28;20518;-80
2022/11/23 08:00:33;;;;;;;14.80;6.90;;;5.70;99.90;;;;;;5054693;28;20502;-82
2022/11/23 08:02:59;;;;;;;13.00;6.70;;;5.80;99.90;;;;;;5046549;28;20462;-79
2022/11/23 08:05:27;;;;;;;14.40;6.53;;;5.80;99.90;;;;;;5039285;28;20448;-83
2022/11/23 08:07:59;;;;;;;16.93;6.90;;;5.90;99.90;;;;;;5031999;28;20455;-83
2022/11/23 08:10:27;;;;;;;16.60;6.60;;;5.90;99.90;;;;;;5028122;28;20860;-86
2022/11/23 08:12:53;;;;;;;16.27;6.53;;;6.00;99.90;;;;;;5017137;28;20443;-85
2022/11/23 08:15:20;;;;;;;9.30;5.23;;;6.00;99.90;;;;;;5015030;28;20454;-85
2022/11/23 08:17:47;;;;;;;10.47;4.40;;;6.00;99.90;;;;;;5014149;28;20453;-86
2022/11/23 08:20:13;;;;;;;8.70;5.33;;;6.10;99.90;;;;;;5019988;28;20776;-86
2022/11/23 08:22:40;;;;;;;11.90;5.20;;;6.20;99.90;;;;;;5017311;28;20453;-86
2022/11/23 08:25:09;;;;;;;10.03;6.27;;;6.30;99.90;;;;;;5013895;28;20458;-86
2022/11/23 08:27:35;;;;;;;8.33;4.37;;;6.30;99.90;;;;;;5013307;28;20462;-86
2022/11/23 08:30:02;;;;;;;8.67;4.10;;;6.40;99.90;;;;;;5013406;28;20443;-86
2022/11/23 08:32:29;;;;;;;7.33;4.90;;;6.60;99.90;;;;;;5013969;28;20951;-86
2022/11/23 08:34:56;;;;;;;7.77;4.87;;;6.70;99.90;;;;;;5014110;28;20483;-86
2022/11/23 08:37:22;;;;;;;7.87;3.90;;;6.80;99.90;;;;;;5014011;28;20458;-86
2022/11/23 08:39:49;;;;;;;9.80;4.40;;;7.10;99.90;;;;;;5029072;28;20489;-86
2022/11/23 08:42:17;;;;;;;8.23;4.03;;;7.40;99.90;;;;;;5035515;28;20955;-86
2022/11/23 08:44:44;;;;;;;7.47;4.17;;;7.70;99.90;;;;;;5026446;28;21027;-86
2022/11/23 08:47:11;;;;;;;11.03;4.53;;;8.00;99.90;;;;;;5032393;28;20565;-86
2022/11/23 08:49:38;;;;;;;9.60;5.33;;;8.50;99.90;;;;;;5027810;28;20501;-86
2022/11/23 08:52:04;;;;;;;7.73;4.63;;;8.90;99.90;;;;;;5016913;28;20798;-86
2022/11/23 08:54:31;;;;;;;8.87;4.40;;;9.10;99.90;;;;;;5019069;28;20454;-86
2022/11/23 08:56:58;;;;;;;9.17;4.20;;;9.10;99.90;;;;;;5035310;28;20441;-86
2022/11/23 08:59:26;;;;;;;6.30;4.87;;;8.80;99.90;;;;;;5015058;28;20979;-86
2022/11/23 09:01:53;;;;;;;8.23;4.43;;;8.60;99.90;;;;;;5014108;28;20458;-86
2022/11/23 09:04:20;;;;;;;7.80;4.30;;;8.60;99.90;;;;;;5013580;28;20474;-86
2022/11/23 09:06:47;;;;;;;6.10;3.87;;;8.80;99.90;;;;;;5025917;28;20455;-86
2022/11/23 09:09:14;;;;;;;5.90;4.23;;;9.50;99.90;;;;;;5032551;28;20438;-86
2022/11/23 09:11:40;;;;;;;7.10;4.00;;;10.20;99.90;;;;;;5045611;28;20426;-87
2022/11/23 09:14:07;;;;;;;6.90;3.73;;;10.70;99.90;;;;;;5053769;28;20461;-86
2022/11/23 09:16:38;;;;;;;6.73;3.80;;;11.50;99.50;;;;;;5037272;28;20445;-87
2022/11/23 09:19:06;;;;;;;6.00;3.80;;;11.60;98.40;;;;;;5049614;28;20541;-86
2022/11/23 09:21:34;;;;;;;12.63;4.57;;;11.20;98.40;;;;;;5053115;28;20442;-86
2022/11/23 09:24:01;;;;;;;13.07;5.50;;;10.80;98.80;;;;;;5052506;28;20454;-86
2022/11/23 09:26:32;;;;;;;11.10;4.87;;;10.70;99.20;;;;;;5046555;28;20522;-87
2022/11/23 09:28:59;;;;;;;8.77;4.27;;;10.60;99.40;;;;;;5037923;28;20442;-86
2022/11/23 09:31:27;;;;;;;7.83;4.97;;;11.30;98.90;;;;;;5037557;28;20434;-88
2022/11/23 09:33:55;;;;;;;7.77;4.27;;;11.40;98.60;;;;;;5033995;28;20465;-87
2022/11/23 09:36:22;;;;;;;10.27;4.73;;;12.20;97.80;;;;;;5031608;28;20477;-87
2022/11/23 09:38:51;;;;;;;9.80;4.60;;;13.10;96.00;;;;;;5033042;28;20477;-86
2022/11/23 09:41:51;;;;;;;7.77;4.00;;;14.00;94.40;;;;;;5029324;28;20461;-87
2022/11/23 09:44:24;;;;;;;7.93;4.00;;;14.20;93.20;;;;;;5029195;28;20478;-86
2022/11/23 09:47:03;;;;;;;9.13;5.13;;;13.50;92.80;;;;;;5031473;28;21547;-86
2022/11/23 09:49:38;;;;;;;6.00;3.97;;;13.70;92.90;;;;;;5030091;28;20445;-86
2022/11/23 09:52:17;;;;;;;6.90;4.17;;;14.10;92.40;;;;;;5030059;28;20448;-85
2022/11/23 09:54:47;;;;;;;9.00;4.13;;;14.30;91.90;;;;;;5032209;28;20465;-87
2022/11/23 09:57:19;;;;;;;5.47;3.70;;;15.00;90.90;;;;;;5053473;28;20449;-86
2022/11/23 09:59:50;;;;;;;7.50;4.07;;;15.20;90.00;;;;;;5054394;28;20475;-87
2022/11/23 10:02:21;;;;;;;10.43;3.97;;;15.50;90.00;;;;;;5034788;28;20445;-86
2022/11/23 10:04:51;;;;;;;7.67;4.17;;;16.10;87.50;;;;;;5031329;28;20468;-88
2022/11/23 10:07:36;;;;;;;8.53;4.43;;;16.50;84.80;;;;;;5025946;28;20460;-86
2022/11/23 10:10:13;;;;;;;10.30;5.03;;;16.60;84.00;;;;;;5029978;28;20961;-86
2022/11/23 10:12:51;;;;;;;7.40;4.23;;;16.90;83.00;;;;;;5044214;28;20438;-86
2022/11/23 10:15:25;;;;;;;9.30;4.37;;;17.30;80.00;;;;;;5031028;28;20795;-87
2022/11/23 10:18:09;;;;;;;9.20;3.60;;;16.50;79.80;;;;;;5035509;28;20820;-87
2022/11/23 10:20:54;;;;;;;6.13;3.97;;;16.10;81.30;;;;;;5034383;28;20484;-87
2022/11/23 10:23:35;;;;;;;9.87;4.63;;;16.30;81.40;;;;;;5033365;28;20458;-87
2022/11/23 10:26:02;;;;;;;5.63;3.20;;;17.10;79.70;;;;;;5035230;28;20450;-86
2022/11/23 10:28:31;;;;;;;5.47;3.40;;;18.10;78.20;;;;;;5035608;28;20788;-86
2022/11/23 10:31:11;;;;;;;7.30;3.40;;;19.70;74.60;;;;;;5031951;28;20451;-87
2022/11/23 10:33:45;;;;;;;5.90;3.50;;;20.90;68.50;;;;;;5032233;28;20468;-86
2022/11/23 10:36:13;;;;;;;6.03;3.77;;;22.70;62.80;;;;;;5035025;28;20819;-87
2022/11/23 10:38:41;;;;;;;7.10;3.30;;;24.10;58.10;;;;;;5033801;28;20864;-87
2022/11/23 10:41:10;;;;;;;4.30;3.10;;;23.00;57.30;;;;;;5034351;28;20485;-86
2022/11/23 10:43:42;;;;;;;6.57;3.57;;;22.30;57.60;;;;;;5034923;28;20457;-86
2022/11/23 10:46:28;;;;;;;5.13;3.90;;;22.20;56.90;;;;;;5044413;28;20433;-87
2022/11/23 10:48:55;;;;;;;5.23;3.00;;;22.10;57.90;;;;;;5035574;28;20528;-87
2022/11/23 10:51:31;;;;;;;6.83;3.73;;;23.50;57.20;;;;;;5034736;28;20445;-87
2022/11/23 10:54:01;;;;;;;7.40;4.23;;;24.40;54.80;;;;;;5035678;28;20472;-87
2022/11/23 10:56:29;;;;;;;5.80;3.73;;;25.20;53.40;;;;;;5040158;28;20457;-88
2022/11/23 10:58:55;;;;;;;9.20;6.03;;;25.60;51.90;;;;;;5049208;28;20798;-87
2022/11/23 11:01:24;;;;;;;3.90;2.97;;;25.60;50.30;;;;;;5036009;28;20461;-87
2022/11/23 11:03:52;;;;;;;5.70;3.57;;;25.30;49.50;;;;;;5057043;28;20446;-88
2022/11/23 11:06:25;;;;;;;7.60;3.60;;;24.80;50.80;;;;;;5058999;28;20485;-87
2022/11/23 11:08:55;;;;;;;6.60;4.50;;;25.20;50.40;;;;;;5058448;28;20442;-88
2022/11/23 11:11:27;;;;;;;5.90;3.60;;;25.90;48.80;;;;;;5053697;28;20427;-87
2022/11/23 11:14:03;;;;;;;6.50;4.00;;;25.00;47.40;;;;;;5041028;28;20453;-87
2022/11/23 11:16:32;;;;;;;5.33;3.30;;;25.70;50.00;;;;;;5037072;28;20450;-88
2022/11/23 11:19:00;;;;;;;5.03;2.40;;;26.60;47.20;;;;;;5050301;28;20444;-87
2022/11/23 11:21:32;;;;;;;11.60;4.30;;;26.60;45.90;;;;;;5034650;28;20449;-87
2022/11/23 11:24:01;;;;;;;4.60;2.60;;;25.80;47.10;;;;;;5033536;28;20476;-87
2022/11/23 11:26:30;;;;;;;3.90;2.67;;;25.00;47.40;;;;;;5034100;28;20461;-88
2022/11/23 11:29:00;;;;;;;6.40;3.40;;;25.80;47.00;;;;;;5047158;28;20501;-88
2022/11/23 11:31:50;;;;;;;6.27;2.70;;;25.90;45.00;;;;;;5056996;28;20438;-87
2022/11/23 11:34:23;;;;;;;7.60;4.50;;;26.00;44.90;;;;;;5038433;28;20517;-87
2022/11/23 11:36:56;;;;;;;5.80;3.40;;;27.20;44.90;;;;;;5035676;28;20438;-87
2022/11/23 11:39:29;;;;;;;3.00;2.23;;;27.20;42.20;;;;;;5035585;28;20445;-87
2022/11/23 11:41:58;;;;;;;7.80;4.00;;;26.90;42.70;;;;;;5043130;28;20474;-87
2022/11/23 11:44:26;;;;;;;6.60;2.80;;;25.40;44.00;;;;;;5055978;28;20458;-87
2022/11/23 11:46:59;;;;;;;4.53;2.73;;;24.70;45.40;;;;;;5042048;28;20453;-87
2022/11/23 11:49:30;;;;;;;4.63;2.47;;;24.50;45.50;;;;;;5038248;28;20481;-87
2022/11/23 11:52:05;;;;;;;3.60;2.33;;;24.00;46.20;;;;;;5035553;28;20525;-87
2022/11/23 11:54:37;;;;;;;5.17;3.00;;;24.10;45.50;;;;;;5035164;28;20461;-87
2022/11/23 11:57:12;;;;;;;4.47;2.57;;;24.00;45.60;;;;;;5041122;28;20509;-84
2022/11/23 11:59:43;;;;;;;4.67;2.57;;;22.50;45.80;;;;;;5043042;28;20446;-85
2022/11/23 12:02:19;;;;;;;5.30;3.20;;;23.70;47.40;;;;;;5034828;28;20442;-84
2022/11/23 12:04:54;;;;;;;5.30;2.33;;;23.20;45.30;;;;;;5035212;28;20555;-85
2022/11/23 12:07:28;;;;;;;2.80;2.10;;;22.60;46.50;;;;;;5034438;28;20452;-85
2022/11/23 12:10:01;;;;;;;4.43;2.00;;;22.50;46.50;;;;;;5034047;28;20496;-85
2022/11/23 12:12:29;;;;;;;3.90;1.70;;;21.90;46.90;;;;;;5033877;28;20441;-86
2022/11/23 12:14:56;;;;;;;3.40;2.00;;;21.60;47.80;;;;;;5034526;28;20474;-85
2022/11/23 12:17:41;;;;;;;3.50;2.10;;;21.40;47.90;;;;;;5034310;28;20457;-84
2022/11/23 12:20:17;;;;;;;2.83;1.67;;;22.30;48.40;;;;;;5034911;28;20442;-85
2022/11/23 12:22:55;;;;;;;3.30;1.80;;;22.10;47.50;;;;;;5033950;28;20441;-84
2022/11/23 12:25:32;;;;;;;3.90;2.00;;;21.80;46.70;;;;;;5048365;28;20957;-84
2022/11/23 12:28:13;;;;;;;3.57;2.07;;;20.90;48.40;;;;;;5034484;28;20817;-85
2022/11/23 12:30:49;;;;;;;2.60;1.77;;;19.90;49.30;;;;;;5035354;28;20481;-85
2022/11/23 12:33:35;;;;;;;3.80;1.97;;;18.40;50.70;;;;;;5037372;28;20465;-85
2022/11/23 12:36:20;;;;;;;4.33;1.77;;;17.40;53.30;;;;;;5036580;28;20450;-85
2022/11/23 12:38:55;;;;;;;3.03;2.10;;;16.60;54.90;;;;;;5033016;28;20449;-85
2022/11/23 12:41:32;;;;;;;5.03;1.80;;;16.50;55.80;;;;;;5033832;28;20445;-85
2022/11/23 12:44:35;;;;;;;2.77;1.80;;;16.60;55.80;;;;;;5042607;28;20445;-85
2022/11/23 12:47:12;;;;;;;3.70;1.73;;;16.20;56.30;;;;;;5052626;28;20445;-83
2022/11/23 12:49:45;;;;;;;4.00;2.23;;;15.70;57.30;;;;;;5034487;28;20452;-84
2022/11/23 12:52:29;;;;;;;5.13;2.17;;;15.10;58.90;;;;;;5033698;28;20496;-84
2022/11/23 12:55:07;;;;;;;6.70;3.50;;;14.50;60.90;;;;;;5033240;28;20561;-83
2022/11/23 12:57:39;;;;;;;3.70;1.67;;;14.00;62.40;;;;;;5043595;28;20453;-84
2022/11/23 13:00:23;;;;;;;5.03;2.90;;;13.60;63.70;;;;;;5068949;23;20700;-83
2022/11/23 13:03:06;;;;;;;3.80;1.87;;;13.40;65.20;;;;;;5039106;28;20457;-83